x

San Francisco - 18nm West Of San Francisco, Ca (46026) Wave Buoy

8:50pm - Sat 4th Jul 2015 All times are PDT. -7 hours from GMT.

  • Sig Wave height 3.3ft
  • Swell Direction
  • Peak Period 15s
  • Average Period 8s
  • Wind
    9mph
  • Sea Temp 62°f
  • Air Temp 59°f
  • Sea Pressure 1012.2mb
  • San Francisco - 18nm West Of San Francisco, Ca
  • San Francisco - 18nm West Of San Francisco, Ca

More Historic Weather Station data

Upgrade to MSW Pro to gain access to the past 30 days of data for over 8000 Wavebouys and Weather Stations around the globe.

Join Pro

Comparision Forecast

View Surf forecast
   
Sat 07/04 8:50pm 3.5ft 15s 8s 9
mph
1012.2mb 62f 59f
7:50pm 3.5ft 9s 8s 2 4 mph 1012.1mb 61f 59f
6:50pm 3.5ft 15s 7s 4 7 mph 1011.9mb 61f 59f
5:50pm 3.5ft 9s 8s 7
mph
1012.1mb 61f 59f
4:50pm 3.5ft 9s 8s 7 9 mph 1012.3mb 61f 60f
3:50pm 3ft 9s 7s 9
mph
1012.3mb 62f 59f
2:50pm 3.5ft 15s 8s 7 9 mph 1012.6mb 62f 59f
1:50pm 3ft 16s 8s 9
mph
1012.6mb 62f 58f
12:50pm 2.5ft 16s 8s 4 7 mph 1012.8mb 61f 58f
11:50am 3.5ft 15s 8s 4 7 mph 1012.9mb 61f 58f
10:50am 3ft 8s 7s 7 9 mph 1012.7mb 60f 57f
9:50am 3.5ft 9s 8s 2
mph
1012.6mb 60f 58f
8:50am 3.5ft 9s 7s  -  2 mph 1012.8mb 60f 58f
7:50am 3.5ft 8s 8s 2
mph
1012.7mb 59f 58f
6:50am 4.5ft 9s 8s 2 4 mph 1012.6mb 59f 57f
5:50am 3.5ft 10s 7s 2 4 mph 1012.5mb 60f 57f
4:50am 3.5ft 10s 8s 4 7 mph 1012.5mb 60f 58f
3:50am 3.5ft 9s 8s 4
mph
1012.6mb 59f 58f
2:50am 3ft 9s 8s 7
mph
1012.6mb 59f 57f
1:50am 3.5ft 10s 8s 4 7 mph 1012.7mb 60f 57f
12:50am 3ft 10s 8s 4 7 mph 1012.9mb 60f 57f
Fri 07/03 11:50pm 3.5ft 10s 8s 4
mph
1013.1mb 60f 57f
10:50pm 3.5ft 9s 7s 7 9 mph 1013.2mb 60f 58f
9:50pm 3.5ft 10s 8s 7 9 mph 1013mb 60f 58f
8:50pm 3.5ft 10s 7s 7
mph
1012.8mb 60f 58f
7:50pm 3.5ft 9s 7s 7 9 mph 1012.9mb 60f 59f
6:50pm 3.5ft 10s 7s 7 9 mph 1013mb 60f 59f
5:50pm 3.5ft 9s 7s 7 9 mph 1013.3mb 61f 60f
4:50pm 3.5ft 9s 8s 7 9 mph 1013.7mb 61f 59f
3:50pm 3.5ft 8s 7s 4 7 mph 1013.9mb 61f 59f
2:50pm 3ft 9s 7s 4 7 mph 1014.3mb 61f 59f
1:50pm 3ft 9s 7s 2 4 mph 1014.7mb 60f 59f
12:50pm 3ft 14s 7s 7 9 mph 1015.3mb 60f 58f
11:50am 3.5ft 9s 8s 9
mph
1015.1mb 59f 58f
10:50am 3.5ft 9s 7s 4 7 mph 1015.5mb 59f 58f
9:50am 3.5ft 9s 8s  -  mph 1015.5mb 58f 58f
8:50am 3.5ft 9s 7s 2
mph
1015.6mb 58f 57f
7:50am 3.5ft 9s 7s 4
mph
1015.4mb 58f 57f
6:50am 3.5ft 9s 7s 2 4 mph 1015mb 58f 57f
5:50am 3.5ft 8s 7s 4 7 mph 1014.7mb 58f 57f
4:50am 3.5ft 9s 7s 9 11 mph 1014.1mb 58f 57f
3:50am 3.5ft 10s 7s 4 7 mph 1013.7mb 58f 57f
2:50am 3.5ft 9s 7s 7 9 mph 1013.9mb 58f 57f
1:50am 3.5ft 10s 7s 4
mph
1014.1mb 58f 57f
12:50am 3.5ft 10s 7s 2 4 mph 1014.9mb 58f 57f
Thu 07/02 11:50pm 3.5ft 10s 7s 2 4 mph 1015.1mb 58f 57f
10:50pm 3.5ft 9s 7s 4
mph
1015mb 58f 57f
9:50pm 3.5ft 8s 7s 7 9 mph 1014.9mb 59f 58f
8:50pm 3.5ft 9s 7s 9 11 mph 1014.7mb 59f 58f
7:50pm 4ft 8s 7s 7
mph
1015mb 59f 57f
6:50pm 3.5ft 8s 7s 4 7 mph 1014.8mb 59f 57f
5:50pm 4ft 9s 7s 9 11 mph 1014.1mb 59f 57f
4:50pm 3.5ft 8s 7s 7
mph
1014.7mb 59f 57f
3:50pm 4ft 8s 7s 4 7 mph 1015.1mb 59f 58f
2:50pm 4ft 9s 7s 4 7 mph 1015.4mb 59f 58f
1:50pm 3.5ft 9s 7s 2
mph
1015.7mb 59f 58f
12:50pm 3.5ft 9s 6s 4
mph
1015.9mb 58f 58f
11:50am 3.5ft 9s 6s 9
mph
1015.9mb 58f 58f
10:50am 3.5ft 8s 6s 9 11 mph 1015.9mb 58f 58f
9:50am 3.5ft 9s 7s 4 9 mph 1015.8mb 58f 57f
8:50am 3.5ft 10s 7s 4
mph
1015.8mb 58f 56f
7:50am 3.5ft 9s 7s 4 7 mph 1015mb 58f 56f
6:50am 4ft 9s 7s 4
mph
1014.6mb 58f 56f
5:50am 3.5ft 9s 7s 2 7 mph 1014.4mb 58f 56f
4:50am 3.5ft 9s 7s 2 4 mph 1014.1mb 58f 56f
3:50am 3.5ft 9s 7s  -  2 mph 1014mb 58f 56f
2:50am 3.5ft 8s 7s 4 7 mph 1014mb 58f 56f
1:50am 3.5ft 9s 7s 2
mph
1014.3mb 58f 56f
12:50am 3.5ft 9s 7s 7 9 mph 1013.2mb 58f 56f
Wed 07/01 11:50pm 3.5ft 9s 6s 4 7 mph 1013.7mb 58f 56f
10:50pm 3.5ft 8s 6s 7
mph
1013.9mb 58f 56f
9:50pm 3.5ft 8s 6s 9 11 mph 1013.5mb 58f 57f
8:50pm 3.5ft 8s 6s 4 7 mph 1013.2mb 58f 57f
7:50pm 3.5ft 8s 6s 16 20 mph 1011.4mb 59f 57f
6:50pm 3.5ft 9s 6s 13 18 mph 1012.1mb 59f 57f
5:50pm 3.5ft 9s 6s 7
mph
1014.1mb 59f 57f
4:50pm 4ft 9s 7s 4 7 mph 1014.2mb 59f 57f
3:50pm 4ft 8s 7s  -  2 mph 1014.6mb 59f 57f
2:50pm 4ft 9s 6s 7 9 mph 1014.6mb 58f 57f
1:50pm 3.5ft 8s 6s 7 9 mph 1015mb 58f 56f
12:50pm 4ft 9s 6s 9 11 mph 1014.9mb 58f 56f
11:50am 3.5ft 8s 6s 9 11 mph 1014.9mb 58f 56f
10:50am 3.5ft 8s 6s 11 13 mph 1014.4mb 58f 55f
9:50am 4ft 8s 6s 9 11 mph 1013.4mb 58f 54f
8:50am 3.5ft 8s 6s 7 9 mph 1012.6mb 58f 54f
7:50am 4.5ft 8s 6s 4
mph
1012mb 58f 54f
6:50am 4.5ft 8s 6s  -  2 mph 1011.8mb 58f 54f
5:50am 4.5ft 8s 6s 4 7 mph 1011mb 58f 54f